الصفحة الرئيسية
METAR-TAF:

METAR-TAF

مطار :

Cloncurry, أستراليا

دائرة عرض: 20-40-07S, خط طول: 140-30-16E, ارتفاع: 188 متر

مراقبة الطقس الحالي

تاريخ ووقت الإصدار 37 دقيقة قبل الساعة 21:00UTC
ريح 6 عقدة من الجنوب
درجة الحرارة 8°درجة مئوية
الرطوبة 71%
ضغط 1020 hPa
الرؤية 10 كم أو أكثر

METAR: YCCY 252100Z AUTO 19006KT 9999 // NCD 08/03 Q1020

زمن: 07:37 (21:37 UTC)


TAF: مفقودة

أرصاد الطقس والتوقعات من أكثر من 4000 مطار (تقارير الطقس للمطار METAR والتنبؤ بالطقس بالمطارTAF).

المحطات المتاحة هي النقط الصفراء والحمراء على الخريطة.

حرك المؤشر فوق النقطة لمعرفة اسم المحطة.

ثم انقر لمعرفة أرصاد وتوقعات الطقس.

لتغيير الخارطة: اضغط على الأزرار الخضراء مع رمز الصليب الأسود للتكبير. على الزر الأخضر مع شرطة للتصغير، أو على الأسهم الخضراء للخرائط المجاورة.


METAR-TAF: